sensor_id;sensor_type;location;lat;lon;timestamp;pressure;altitude;pressure_sealevel;temperature;humidity
26436;BME280;15351;52.408;16.826;2023-12-28T00:03:01;100780.11;;;5.83;73.57
26436;BME280;15351;52.408;16.826;2023-12-28T00:09:19;100781.12;;;5.83;73.47
26436;BME280;15351;52.408;16.826;2023-12-28T00:12:01;100771.11;;;5.81;73.34
26436;BME280;15351;52.408;16.826;2023-12-28T00:17:47;100781.67;;;5.83;73.24
26436;BME280;15351;52.408;16.826;2023-12-28T00:21:29;100786.05;;;5.86;73.28
26436;BME280;15351;52.408;16.826;2023-12-28T00:24:22;100787.80;;;5.84;73.16
26436;BME280;15351;52.408;16.826;2023-12-28T00:26:58;100792.61;;;5.83;72.97
26436;BME280;15351;52.408;16.826;2023-12-28T00:29:49;100781.09;;;5.80;73.05
26436;BME280;15351;52.408;16.826;2023-12-28T00:33:17;100772.10;;;5.80;73.02
26436;BME280;15351;52.408;16.826;2023-12-28T00:39:39;100777.48;;;5.74;72.98
26436;BME280;15351;52.408;16.826;2023-12-28T00:42:18;100773.48;;;5.71;72.81
26436;BME280;15351;52.408;16.826;2023-12-28T00:45:23;100759.16;;;5.70;72.92
26436;BME280;15351;52.408;16.826;2023-12-28T00:48:16;100756.94;;;5.71;72.87
26436;BME280;15351;52.408;16.826;2023-12-28T00:51:15;100761.08;;;5.72;72.90
26436;BME280;15351;52.408;16.826;2023-12-28T00:54:06;100752.92;;;5.70;72.74
26436;BME280;15351;52.408;16.826;2023-12-28T00:56:48;100745.29;;;5.67;72.78
26436;BME280;15351;52.408;16.826;2023-12-28T00:59:51;100737.73;;;5.66;72.80
26436;BME280;15351;52.408;16.826;2023-12-28T01:02:39;100730.82;;;5.68;72.70
26436;BME280;15351;52.408;16.826;2023-12-28T01:05:29;100736.90;;;5.71;72.81
26436;BME280;15351;52.408;16.826;2023-12-28T01:08:15;100735.08;;;5.72;72.66
26436;BME280;15351;52.408;16.826;2023-12-28T01:11:26;100720.31;;;5.69;72.64
26436;BME280;15351;52.408;16.826;2023-12-28T01:13:57;100729.50;;;5.72;72.69
26436;BME280;15351;52.408;16.826;2023-12-28T01:16:36;100728.04;;;5.73;72.64
26436;BME280;15351;52.408;16.826;2023-12-28T01:19:33;100719.44;;;5.69;72.61
26436;BME280;15351;52.408;16.826;2023-12-28T01:22:31;100720.71;;;5.69;72.64
26436;BME280;15351;52.408;16.826;2023-12-28T01:29:15;100734.80;;;5.71;72.52
26436;BME280;15351;52.408;16.826;2023-12-28T01:32:34;100724.86;;;5.66;72.52
26436;BME280;15351;52.408;16.826;2023-12-28T01:35:28;100714.65;;;5.65;72.56
26436;BME280;15351;52.408;16.826;2023-12-28T01:38:11;100713.59;;;5.69;72.50
26436;BME280;15351;52.408;16.826;2023-12-28T01:40:53;100711.61;;;5.71;72.50
26436;BME280;15351;52.408;16.826;2023-12-28T01:47:22;100709.61;;;5.71;72.58
26436;BME280;15351;52.408;16.826;2023-12-28T01:50:02;100703.67;;;5.72;72.67
26436;BME280;15351;52.408;16.826;2023-12-28T01:52:50;100691.79;;;5.71;72.72
26436;BME280;15351;52.408;16.826;2023-12-28T01:55:32;100671.67;;;5.71;72.55
26436;BME280;15351;52.408;16.826;2023-12-28T01:58:40;100658.15;;;5.70;72.65
26436;BME280;15351;52.408;16.826;2023-12-28T02:02:22;100640.55;;;5.70;72.60
26436;BME280;15351;52.408;16.826;2023-12-28T02:05:01;100634.36;;;5.69;72.73
26436;BME280;15351;52.408;16.826;2023-12-28T02:08:01;100632.19;;;5.70;72.71
26436;BME280;15351;52.408;16.826;2023-12-28T02:10:28;100638.18;;;5.70;72.76
26436;BME280;15351;52.408;16.826;2023-12-28T02:12:54;100635.26;;;5.71;72.86
26436;BME280;15351;52.408;16.826;2023-12-28T02:15:23;100635.27;;;5.71;72.87
26436;BME280;15351;52.408;16.826;2023-12-28T02:18:02;100624.89;;;5.73;72.94
26436;BME280;15351;52.408;16.826;2023-12-28T02:20:31;100611.55;;;5.76;72.89
26436;BME280;15351;52.408;16.826;2023-12-28T02:23:01;100599.08;;;5.78;72.93
26436;BME280;15351;52.408;16.826;2023-12-28T02:25:28;100603.48;;;5.79;72.86
26436;BME280;15351;52.408;16.826;2023-12-28T02:27:55;100604.25;;;5.78;72.83
26436;BME280;15351;52.408;16.826;2023-12-28T02:30:23;100591.92;;;5.76;72.96
26436;BME280;15351;52.408;16.826;2023-12-28T02:33:35;100574.95;;;5.78;72.99
26436;BME280;15351;52.408;16.826;2023-12-28T02:36:09;100569.05;;;5.81;73.07
26436;BME280;15351;52.408;16.826;2023-12-28T02:38:46;100567.36;;;5.83;72.88
26436;BME280;15351;52.408;16.826;2023-12-28T02:41:15;100563.92;;;5.84;72.80
26436;BME280;15351;52.408;16.826;2023-12-28T02:43:42;100554.41;;;5.84;72.96
26436;BME280;15351;52.408;16.826;2023-12-28T02:46:11;100552.18;;;5.83;72.81
26436;BME280;15351;52.408;16.826;2023-12-28T02:48:39;100540.10;;;5.83;72.85
26436;BME280;15351;52.408;16.826;2023-12-28T02:51:05;100517.42;;;5.83;72.96
26436;BME280;15351;52.408;16.826;2023-12-28T02:53:31;100506.15;;;5.85;72.94
26436;BME280;15351;52.408;16.826;2023-12-28T02:56:00;100506.10;;;5.84;72.99
26436;BME280;15351;52.408;16.826;2023-12-28T02:58:35;100505.64;;;5.83;72.99
26436;BME280;15351;52.408;16.826;2023-12-28T03:01:10;100498.48;;;5.83;73.20
26436;BME280;15351;52.408;16.826;2023-12-28T03:03:37;100491.52;;;5.82;73.07
26436;BME280;15351;52.408;16.826;2023-12-28T03:06:06;100487.98;;;5.83;73.18
26436;BME280;15351;52.408;16.826;2023-12-28T03:08:33;100486.85;;;5.84;73.14
26436;BME280;15351;52.408;16.826;2023-12-28T03:11:00;100484.04;;;5.83;73.19
26436;BME280;15351;52.408;16.826;2023-12-28T03:13:26;100489.55;;;5.83;73.23
26436;BME280;15351;52.408;16.826;2023-12-28T03:15:53;100474.31;;;5.86;73.18
26436;BME280;15351;52.408;16.826;2023-12-28T03:18:20;100472.05;;;5.87;73.18
26436;BME280;15351;52.408;16.826;2023-12-28T03:20:47;100482.89;;;5.86;73.14
26436;BME280;15351;52.408;16.826;2023-12-28T03:23:14;100487.49;;;5.84;73.15
26436;BME280;15351;52.408;16.826;2023-12-28T03:26:02;100489.30;;;5.84;73.19
26436;BME280;15351;52.408;16.826;2023-12-28T03:28:35;100482.08;;;5.83;73.33
26436;BME280;15351;52.408;16.826;2023-12-28T03:31:03;100468.06;;;5.84;73.24
26436;BME280;15351;52.408;16.826;2023-12-28T03:33:34;100462.88;;;5.84;73.36
26436;BME280;15351;52.408;16.826;2023-12-28T03:36:17;100461.93;;;5.87;73.39
26436;BME280;15351;52.408;16.826;2023-12-28T03:38:50;100461.96;;;5.86;73.44
26436;BME280;15351;52.408;16.826;2023-12-28T03:41:19;100468.53;;;5.85;73.44
26436;BME280;15351;52.408;16.826;2023-12-28T03:43:46;100466.79;;;5.85;73.57
26436;BME280;15351;52.408;16.826;2023-12-28T03:46:14;100468.80;;;5.84;73.56
26436;BME280;15351;52.408;16.826;2023-12-28T03:49:01;100460.81;;;5.83;73.67
26436;BME280;15351;52.408;16.826;2023-12-28T03:51:29;100454.42;;;5.83;73.63
26436;BME280;15351;52.408;16.826;2023-12-28T03:53:56;100447.80;;;5.83;73.68
26436;BME280;15351;52.408;16.826;2023-12-28T03:56:26;100448.96;;;5.84;73.80
26436;BME280;15351;52.408;16.826;2023-12-28T03:58:54;100449.57;;;5.85;73.80
26436;BME280;15351;52.408;16.826;2023-12-28T04:01:34;100445.73;;;5.86;73.72
26436;BME280;15351;52.408;16.826;2023-12-28T04:04:01;100447.23;;;5.87;73.86
26436;BME280;15351;52.408;16.826;2023-12-28T04:06:30;100449.42;;;5.87;73.84
26436;BME280;15351;52.408;16.826;2023-12-28T04:08:57;100445.95;;;5.88;73.81
26436;BME280;15351;52.408;16.826;2023-12-28T04:11:24;100445.42;;;5.88;73.88
26436;BME280;15351;52.408;16.826;2023-12-28T04:13:51;100452.02;;;5.88;73.98
26436;BME280;15351;52.408;16.826;2023-12-28T04:16:23;100440.48;;;5.89;73.99
26436;BME280;15351;52.408;16.826;2023-12-28T04:18:49;100450.35;;;5.88;73.99
26436;BME280;15351;52.408;16.826;2023-12-28T04:21:16;100452.06;;;5.89;74.00
26436;BME280;15351;52.408;16.826;2023-12-28T04:23:53;100451.78;;;5.88;74.04
26436;BME280;15351;52.408;16.826;2023-12-28T04:26:20;100453.74;;;5.90;74.08
26436;BME280;15351;52.408;16.826;2023-12-28T04:28:47;100443.32;;;5.91;74.03
26436;BME280;15351;52.408;16.826;2023-12-28T04:31:13;100448.77;;;5.93;74.07
26436;BME280;15351;52.408;16.826;2023-12-28T04:33:39;100453.12;;;5.94;74.09
26436;BME280;15351;52.408;16.826;2023-12-28T04:36:12;100453.91;;;5.97;74.25
26436;BME280;15351;52.408;16.826;2023-12-28T04:38:39;100460.01;;;5.99;74.22
26436;BME280;15351;52.408;16.826;2023-12-28T04:41:06;100461.66;;;6.02;74.30
26436;BME280;15351;52.408;16.826;2023-12-28T04:43:32;100466.88;;;6.05;74.23
26436;BME280;15351;52.408;16.826;2023-12-28T04:46:03;100468.66;;;6.08;74.33
26436;BME280;15351;52.408;16.826;2023-12-28T04:48:34;100457.60;;;6.12;74.39
26436;BME280;15351;52.408;16.826;2023-12-28T04:51:03;100450.50;;;6.15;74.15
26436;BME280;15351;52.408;16.826;2023-12-28T04:53:29;100445.83;;;6.19;74.27
26436;BME280;15351;52.408;16.826;2023-12-28T04:55:56;100439.56;;;6.21;74.21
26436;BME280;15351;52.408;16.826;2023-12-28T04:58:23;100442.28;;;6.22;73.99
26436;BME280;15351;52.408;16.826;2023-12-28T05:00:52;100445.27;;;6.25;74.15
26436;BME280;15351;52.408;16.826;2023-12-28T05:03:21;100441.46;;;6.27;74.16
26436;BME280;15351;52.408;16.826;2023-12-28T05:05:48;100445.95;;;6.30;73.99
26436;BME280;15351;52.408;16.826;2023-12-28T05:08:16;100434.83;;;6.33;73.92
26436;BME280;15351;52.408;16.826;2023-12-28T05:10:42;100423.91;;;6.35;73.78
26436;BME280;15351;52.408;16.826;2023-12-28T05:13:08;100421.05;;;6.35;73.88
26436;BME280;15351;52.408;16.826;2023-12-28T05:15:35;100427.13;;;6.37;73.97
26436;BME280;15351;52.408;16.826;2023-12-28T05:18:01;100429.16;;;6.39;73.76
26436;BME280;15351;52.408;16.826;2023-12-28T05:20:28;100426.21;;;6.41;73.85
26436;BME280;15351;52.408;16.826;2023-12-28T05:22:55;100423.89;;;6.43;73.70
26436;BME280;15351;52.408;16.826;2023-12-28T05:25:21;100432.84;;;6.45;73.71
26436;BME280;15351;52.408;16.826;2023-12-28T05:27:48;100434.10;;;6.47;73.58
26436;BME280;15351;52.408;16.826;2023-12-28T05:30:15;100438.70;;;6.49;73.41
26436;BME280;15351;52.408;16.826;2023-12-28T05:32:41;100432.71;;;6.48;73.46
26436;BME280;15351;52.408;16.826;2023-12-28T05:35:08;100424.91;;;6.47;73.51
26436;BME280;15351;52.408;16.826;2023-12-28T05:37:36;100420.45;;;6.47;73.42
26436;BME280;15351;52.408;16.826;2023-12-28T05:40:02;100414.98;;;6.47;73.54
26436;BME280;15351;52.408;16.826;2023-12-28T05:42:28;100416.05;;;6.47;73.53
26436;BME280;15351;52.408;16.826;2023-12-28T05:44:54;100414.77;;;6.47;73.50
26436;BME280;15351;52.408;16.826;2023-12-28T05:47:21;100420.02;;;6.48;73.48
26436;BME280;15351;52.408;16.826;2023-12-28T05:49:47;100426.45;;;6.48;73.48
26436;BME280;15351;52.408;16.826;2023-12-28T05:52:15;100426.20;;;6.47;73.53
26436;BME280;15351;52.408;16.826;2023-12-28T05:54:45;100422.80;;;6.49;73.48
26436;BME280;15351;52.408;16.826;2023-12-28T05:57:11;100423.17;;;6.52;73.58
26436;BME280;15351;52.408;16.826;2023-12-28T05:59:38;100422.71;;;6.53;73.49
26436;BME280;15351;52.408;16.826;2023-12-28T06:02:07;100425.20;;;6.55;73.53
26436;BME280;15351;52.408;16.826;2023-12-28T06:04:34;100424.63;;;6.55;73.50
26436;BME280;15351;52.408;16.826;2023-12-28T06:07:03;100434.68;;;6.59;73.53
26436;BME280;15351;52.408;16.826;2023-12-28T06:09:30;100443.35;;;6.61;73.51
26436;BME280;15351;52.408;16.826;2023-12-28T06:11:57;100448.52;;;6.65;73.49
26436;BME280;15351;52.408;16.826;2023-12-28T06:14:24;100456.55;;;6.68;73.40
26436;BME280;15351;52.408;16.826;2023-12-28T06:16:50;100453.13;;;6.70;73.40
26436;BME280;15351;52.408;16.826;2023-12-28T06:19:16;100462.65;;;6.73;73.48
26436;BME280;15351;52.408;16.826;2023-12-28T06:21:42;100475.64;;;6.77;73.42
26436;BME280;15351;52.408;16.826;2023-12-28T06:24:09;100478.95;;;6.81;73.40
26436;BME280;15351;52.408;16.826;2023-12-28T06:26:42;100488.28;;;6.86;73.60
26436;BME280;15351;52.408;16.826;2023-12-28T06:29:10;100496.45;;;6.90;73.81
26436;BME280;15351;52.408;16.826;2023-12-28T06:31:37;100497.29;;;6.92;74.05
26436;BME280;15351;52.408;16.826;2023-12-28T06:34:06;100494.88;;;6.93;74.48
26436;BME280;15351;52.408;16.826;2023-12-28T06:36:32;100497.41;;;6.95;74.88
26436;BME280;15351;52.408;16.826;2023-12-28T06:38:59;100493.60;;;6.97;75.12
26436;BME280;15351;52.408;16.826;2023-12-28T06:41:27;100495.48;;;6.98;75.32
26436;BME280;15351;52.408;16.826;2023-12-28T06:43:53;100487.60;;;7.00;75.70
26436;BME280;15351;52.408;16.826;2023-12-28T06:46:20;100486.33;;;7.04;75.94
26436;BME280;15351;52.408;16.826;2023-12-28T06:48:46;100482.84;;;7.05;76.08
26436;BME280;15351;52.408;16.826;2023-12-28T06:51:17;100489.89;;;7.05;76.40
26436;BME280;15351;52.408;16.826;2023-12-28T06:53:45;100495.63;;;7.07;76.54
26436;BME280;15351;52.408;16.826;2023-12-28T06:56:13;100495.65;;;7.09;76.81
26436;BME280;15351;52.408;16.826;2023-12-28T06:58:40;100486.47;;;7.09;76.78
26436;BME280;15351;52.408;16.826;2023-12-28T07:01:07;100483.06;;;7.11;77.11
26436;BME280;15351;52.408;16.826;2023-12-28T07:03:35;100492.37;;;7.14;77.20
26436;BME280;15351;52.408;16.826;2023-12-28T07:06:02;100507.25;;;7.17;77.29
26436;BME280;15351;52.408;16.826;2023-12-28T07:08:29;100507.10;;;7.19;77.37
26436;BME280;15351;52.408;16.826;2023-12-28T07:10:58;100507.45;;;7.21;77.66
26436;BME280;15351;52.408;16.826;2023-12-28T07:13:25;100519.51;;;7.24;77.70
26436;BME280;15351;52.408;16.826;2023-12-28T07:16:08;100525.63;;;7.25;77.75
26436;BME280;15351;52.408;16.826;2023-12-28T07:18:55;100530.24;;;7.28;77.97
26436;BME280;15351;52.408;16.826;2023-12-28T07:21:22;100528.52;;;7.31;78.21
26436;BME280;15351;52.408;16.826;2023-12-28T07:23:48;100530.25;;;7.33;78.26
26436;BME280;15351;52.408;16.826;2023-12-28T07:26:35;100530.76;;;7.35;78.33
26436;BME280;15351;52.408;16.826;2023-12-28T07:29:03;100534.63;;;7.40;78.52
26436;BME280;15351;52.408;16.826;2023-12-28T07:31:31;100545.99;;;7.44;78.63
26436;BME280;15351;52.408;16.826;2023-12-28T07:33:58;100540.02;;;7.46;78.59
26436;BME280;15351;52.408;16.826;2023-12-28T07:36:25;100545.58;;;7.49;78.80
26436;BME280;15351;52.408;16.826;2023-12-28T07:38:52;100550.30;;;7.52;78.93
26436;BME280;15351;52.408;16.826;2023-12-28T07:41:29;100544.23;;;7.55;78.99
26436;BME280;15351;52.408;16.826;2023-12-28T07:44:17;100552.36;;;7.60;79.12
26436;BME280;15351;52.408;16.826;2023-12-28T07:46:46;100550.04;;;7.63;79.10
26436;BME280;15351;52.408;16.826;2023-12-28T07:49:12;100554.55;;;7.65;79.08
26436;BME280;15351;52.408;16.826;2023-12-28T07:51:46;100561.36;;;7.66;79.40
26436;BME280;15351;52.408;16.826;2023-12-28T07:54:16;100551.48;;;7.70;79.29
26436;BME280;15351;52.408;16.826;2023-12-28T07:56:44;100556.95;;;7.74;79.25
26436;BME280;15351;52.408;16.826;2023-12-28T07:59:11;100566.15;;;7.78;79.26
26436;BME280;15351;52.408;16.826;2023-12-28T08:01:37;100565.93;;;7.82;79.22
26436;BME280;15351;52.408;16.826;2023-12-28T08:04:04;100558.31;;;7.85;79.16
26436;BME280;15351;52.408;16.826;2023-12-28T08:06:33;100557.95;;;7.88;79.18
26436;BME280;15351;52.408;16.826;2023-12-28T08:09:10;100553.67;;;7.92;79.06
26436;BME280;15351;52.408;16.826;2023-12-28T08:11:37;100553.72;;;7.93;79.02
26436;BME280;15351;52.408;16.826;2023-12-28T08:14:04;100557.67;;;7.96;78.93
26436;BME280;15351;52.408;16.826;2023-12-28T08:16:31;100567.73;;;7.99;79.06
26436;BME280;15351;52.408;16.826;2023-12-28T08:18:57;100566.44;;;8.01;79.19
26436;BME280;15351;52.408;16.826;2023-12-28T08:21:24;100558.33;;;8.04;79.18
26436;BME280;15351;52.408;16.826;2023-12-28T08:23:53;100553.40;;;8.08;79.28
26436;BME280;15351;52.408;16.826;2023-12-28T08:26:20;100553.18;;;8.10;79.21
26436;BME280;15351;52.408;16.826;2023-12-28T08:28:47;100559.75;;;8.12;79.09
26436;BME280;15351;52.408;16.826;2023-12-28T08:31:14;100563.05;;;8.15;79.09
26436;BME280;15351;52.408;16.826;2023-12-28T08:33:41;100559.60;;;8.17;78.98
26436;BME280;15351;52.408;16.826;2023-12-28T08:36:09;100566.33;;;8.19;78.93
26436;BME280;15351;52.408;16.826;2023-12-28T08:38:35;100569.70;;;8.21;78.80
26436;BME280;15351;52.408;16.826;2023-12-28T08:41:03;100572.19;;;8.23;78.57
26436;BME280;15351;52.408;16.826;2023-12-28T08:43:36;100561.05;;;8.26;78.67
26436;BME280;15351;52.408;16.826;2023-12-28T08:46:07;100558.33;;;8.29;78.43
26436;BME280;15351;52.408;16.826;2023-12-28T08:48:33;100563.23;;;8.31;78.34
26436;BME280;15351;52.408;16.826;2023-12-28T08:51:01;100574.30;;;8.35;78.35
26436;BME280;15351;52.408;16.826;2023-12-28T08:53:27;100571.15;;;8.38;78.20
26436;BME280;15351;52.408;16.826;2023-12-28T08:55:55;100570.83;;;8.40;78.16
26436;BME280;15351;52.408;16.826;2023-12-28T08:58:21;100566.52;;;8.44;78.13
26436;BME280;15351;52.408;16.826;2023-12-28T09:00:50;100567.94;;;8.48;78.09
26436;BME280;15351;52.408;16.826;2023-12-28T09:03:16;100572.13;;;8.52;77.97
26436;BME280;15351;52.408;16.826;2023-12-28T09:05:43;100571.16;;;8.56;78.04
26436;BME280;15351;52.408;16.826;2023-12-28T09:08:13;100575.15;;;8.60;77.81
26436;BME280;15351;52.408;16.826;2023-12-28T09:10:41;100579.52;;;8.64;77.81
26436;BME280;15351;52.408;16.826;2023-12-28T09:13:07;100573.86;;;8.69;77.79
26436;BME280;15351;52.408;16.826;2023-12-28T09:15:33;100572.93;;;8.72;77.82
26436;BME280;15351;52.408;16.826;2023-12-28T09:18:00;100583.05;;;8.77;77.81
26436;BME280;15351;52.408;16.826;2023-12-28T09:20:27;100588.65;;;8.81;77.74
26436;BME280;15351;52.408;16.826;2023-12-28T09:22:54;100585.33;;;8.89;77.66
26436;BME280;15351;52.408;16.826;2023-12-28T09:25:42;100582.77;;;8.96;77.49
26436;BME280;15351;52.408;16.826;2023-12-28T09:28:08;100582.12;;;9.01;77.24
26436;BME280;15351;52.408;16.826;2023-12-28T09:30:35;100587.35;;;9.06;77.17
26436;BME280;15351;52.408;16.826;2023-12-28T09:33:02;100586.02;;;9.10;77.01
26436;BME280;15351;52.408;16.826;2023-12-28T09:35:29;100589.48;;;9.13;76.75
26436;BME280;15351;52.408;16.826;2023-12-28T09:37:56;100590.65;;;9.14;76.66
26436;BME280;15351;52.408;16.826;2023-12-28T09:40:24;100587.97;;;9.15;76.79
26436;BME280;15351;52.408;16.826;2023-12-28T09:45:41;100588.40;;;9.16;76.76
26436;BME280;15351;52.408;16.826;2023-12-28T09:48:08;100586.59;;;9.16;76.37
26436;BME280;15351;52.408;16.826;2023-12-28T09:50:36;100580.60;;;9.17;76.29
26436;BME280;15351;52.408;16.826;2023-12-28T09:53:03;100572.60;;;9.18;76.20
26436;BME280;15351;52.408;16.826;2023-12-28T09:55:31;100572.96;;;9.19;75.91
26436;BME280;15351;52.408;16.826;2023-12-28T09:58:19;100575.59;;;9.20;75.82
26436;BME280;15351;52.408;16.826;2023-12-28T10:00:49;100576.36;;;9.21;75.69
26436;BME280;15351;52.408;16.826;2023-12-28T10:03:16;100582.35;;;9.22;75.70
26436;BME280;15351;52.408;16.826;2023-12-28T10:05:44;100581.95;;;9.22;75.52
26436;BME280;15351;52.408;16.826;2023-12-28T10:08:15;100581.39;;;9.22;75.47
26436;BME280;15351;52.408;16.826;2023-12-28T10:10:44;100582.16;;;9.24;75.36
26436;BME280;15351;52.408;16.826;2023-12-28T10:13:17;100589.63;;;9.25;75.34
26436;BME280;15351;52.408;16.826;2023-12-28T10:15:46;100593.70;;;9.25;75.30
26436;BME280;15351;52.408;16.826;2023-12-28T10:18:21;100589.83;;;9.27;75.25
26436;BME280;15351;52.408;16.826;2023-12-28T10:20:52;100588.08;;;9.28;75.19
26436;BME280;15351;52.408;16.826;2023-12-28T10:23:19;100586.07;;;9.30;75.13
26436;BME280;15351;52.408;16.826;2023-12-28T10:25:56;100583.89;;;9.32;75.02
26436;BME280;15351;52.408;16.826;2023-12-28T10:28:24;100579.38;;;9.34;74.94
26436;BME280;15351;52.408;16.826;2023-12-28T10:30:55;100580.41;;;9.35;74.84
26436;BME280;15351;52.408;16.826;2023-12-28T10:33:22;100579.27;;;9.35;74.81
26436;BME280;15351;52.408;16.826;2023-12-28T10:35:54;100572.54;;;9.36;74.80
26436;BME280;15351;52.408;16.826;2023-12-28T10:38:25;100570.25;;;9.37;74.66
26436;BME280;15351;52.408;16.826;2023-12-28T10:40:54;100566.02;;;9.38;74.69
26436;BME280;15351;52.408;16.826;2023-12-28T10:43:23;100565.60;;;9.39;74.69
26436;BME280;15351;52.408;16.826;2023-12-28T10:45:50;100565.52;;;9.40;74.68
26436;BME280;15351;52.408;16.826;2023-12-28T10:48:29;100563.29;;;9.40;74.51
26436;BME280;15351;52.408;16.826;2023-12-28T10:51:02;100562.38;;;9.40;74.51
26436;BME280;15351;52.408;16.826;2023-12-28T10:53:50;100557.88;;;9.41;74.54
26436;BME280;15351;52.408;16.826;2023-12-28T10:58:53;100564.81;;;9.43;74.31
26436;BME280;15351;52.408;16.826;2023-12-28T11:01:41;100562.24;;;9.43;74.26
26436;BME280;15351;52.408;16.826;2023-12-28T11:04:56;100557.57;;;9.43;74.19
26436;BME280;15351;52.408;16.826;2023-12-28T11:07:30;100557.97;;;9.45;74.25
26436;BME280;15351;52.408;16.826;2023-12-28T11:10:14;100557.16;;;9.45;74.25
26436;BME280;15351;52.408;16.826;2023-12-28T11:12:43;100555.28;;;9.46;74.36
26436;BME280;15351;52.408;16.826;2023-12-28T11:15:10;100552.92;;;9.48;74.11
26436;BME280;15351;52.408;16.826;2023-12-28T11:17:39;100554.03;;;9.49;74.20
26436;BME280;15351;52.408;16.826;2023-12-28T11:20:11;100551.82;;;9.49;74.17
26436;BME280;15351;52.408;16.826;2023-12-28T11:22:39;100550.56;;;9.50;74.24
26436;BME280;15351;52.408;16.826;2023-12-28T11:25:16;100548.84;;;9.53;74.25
26436;BME280;15351;52.408;16.826;2023-12-28T11:27:46;100544.41;;;9.56;74.27
26436;BME280;15351;52.408;16.826;2023-12-28T11:30:30;100537.97;;;9.57;74.22
26436;BME280;15351;52.408;16.826;2023-12-28T11:33:01;100538.31;;;9.59;74.20
26436;BME280;15351;52.408;16.826;2023-12-28T11:35:39;100538.81;;;9.61;73.91
26436;BME280;15351;52.408;16.826;2023-12-28T11:38:10;100545.70;;;9.62;73.90
26436;BME280;15351;52.408;16.826;2023-12-28T11:40:47;100542.61;;;9.62;74.04
26436;BME280;15351;52.408;16.826;2023-12-28T11:43:21;100537.83;;;9.63;74.04
26436;BME280;15351;52.408;16.826;2023-12-28T11:45:49;100537.67;;;9.65;73.87
26436;BME280;15351;52.408;16.826;2023-12-28T11:48:24;100536.59;;;9.65;73.94
26436;BME280;15351;52.408;16.826;2023-12-28T11:51:00;100533.19;;;9.67;73.83
26436;BME280;15351;52.408;16.826;2023-12-28T11:53:47;100540.80;;;9.69;73.81
26436;BME280;15351;52.408;16.826;2023-12-28T11:56:21;100539.50;;;9.71;73.74
26436;BME280;15351;52.408;16.826;2023-12-28T11:58:47;100540.76;;;9.73;73.88
26436;BME280;15351;52.408;16.826;2023-12-28T12:01:16;100541.83;;;9.74;73.78
26436;BME280;15351;52.408;16.826;2023-12-28T12:03:43;100543.84;;;9.75;74.02
26436;BME280;15351;52.408;16.826;2023-12-28T12:06:16;100534.61;;;9.77;73.88
26436;BME280;15351;52.408;16.826;2023-12-28T12:08:46;100536.40;;;9.79;73.80
26436;BME280;15351;52.408;16.826;2023-12-28T12:11:16;100544.62;;;9.81;73.83
26436;BME280;15351;52.408;16.826;2023-12-28T12:13:44;100542.43;;;9.81;73.65
26436;BME280;15351;52.408;16.826;2023-12-28T12:16:15;100544.48;;;9.81;73.59
26436;BME280;15351;52.408;16.826;2023-12-28T12:18:42;100548.34;;;9.82;73.53
26436;BME280;15351;52.408;16.826;2023-12-28T12:21:09;100546.29;;;9.83;73.54
26436;BME280;15351;52.408;16.826;2023-12-28T12:23:37;100549.02;;;9.85;73.56
26436;BME280;15351;52.408;16.826;2023-12-28T12:29:13;100545.92;;;9.86;73.44
26436;BME280;15351;52.408;16.826;2023-12-28T12:32:19;100551.02;;;9.87;73.49
26436;BME280;15351;52.408;16.826;2023-12-28T12:35:09;100548.44;;;9.88;73.45
26436;BME280;15351;52.408;16.826;2023-12-28T12:37:57;100544.35;;;9.86;73.36
26436;BME280;15351;52.408;16.826;2023-12-28T12:40:35;100544.27;;;9.88;73.31
26436;BME280;15351;52.408;16.826;2023-12-28T12:43:09;100545.50;;;9.86;73.26
26436;BME280;15351;52.408;16.826;2023-12-28T12:46:12;100550.13;;;9.83;73.12
26436;BME280;15351;52.408;16.826;2023-12-28T12:49:00;100549.17;;;9.84;73.26
26436;BME280;15351;52.408;16.826;2023-12-28T12:51:54;100543.73;;;9.84;73.31
26436;BME280;15351;52.408;16.826;2023-12-28T12:54:23;100541.66;;;9.86;73.29
26436;BME280;15351;52.408;16.826;2023-12-28T12:57:35;100536.45;;;9.86;73.31
26436;BME280;15351;52.408;16.826;2023-12-28T13:00:11;100535.20;;;9.86;73.31
26436;BME280;15351;52.408;16.826;2023-12-28T13:02:55;100538.17;;;9.84;73.36
26436;BME280;15351;52.408;16.826;2023-12-28T13:05:44;100539.75;;;9.85;73.37
26436;BME280;15351;52.408;16.826;2023-12-28T13:08:25;100540.83;;;9.85;73.52
26436;BME280;15351;52.408;16.826;2023-12-28T13:10:58;100538.79;;;9.85;73.37
26436;BME280;15351;52.408;16.826;2023-12-28T13:17:02;100535.54;;;9.87;73.66
26436;BME280;15351;52.408;16.826;2023-12-28T13:19:40;100528.73;;;9.89;73.51
26436;BME280;15351;52.408;16.826;2023-12-28T13:22:10;100523.10;;;9.89;73.48
26436;BME280;15351;52.408;16.826;2023-12-28T13:25:05;100524.36;;;9.89;73.50
26436;BME280;15351;52.408;16.826;2023-12-28T13:27:33;100526.52;;;9.88;73.61
26436;BME280;15351;52.408;16.826;2023-12-28T13:30:01;100528.90;;;9.87;73.43
26436;BME280;15351;52.408;16.826;2023-12-28T13:32:31;100526.95;;;9.87;73.44
26436;BME280;15351;52.408;16.826;2023-12-28T13:35:12;100516.24;;;9.86;73.51
26436;BME280;15351;52.408;16.826;2023-12-28T13:37:39;100514.38;;;9.85;73.43
26436;BME280;15351;52.408;16.826;2023-12-28T13:40:12;100513.73;;;9.85;73.42
26436;BME280;15351;52.408;16.826;2023-12-28T13:42:46;100521.52;;;9.86;73.53
26436;BME280;15351;52.408;16.826;2023-12-28T13:45:16;100517.75;;;9.84;73.57
26436;BME280;15351;52.408;16.826;2023-12-28T13:47:47;100516.63;;;9.86;73.50
26436;BME280;15351;52.408;16.826;2023-12-28T13:50:15;100516.47;;;9.86;73.57
26436;BME280;15351;52.408;16.826;2023-12-28T13:52:44;100510.09;;;9.85;73.71
26436;BME280;15351;52.408;16.826;2023-12-28T13:55:11;100505.54;;;9.84;73.56